DW8458 South Croxton UK current weather conditions

sailwx.info

Wind from 266 at 0 knots gusting 2

Air temperature 15.6° C
Dewpoint 10.9° C

Last reported at 2019-Sep-16 16:01 UTC.
Time now 2019-Sep-16 16:41 UTC

Location: N 52°41' W 000°59'.
View on Google Maps.

See reports from other nearby stations

  
Tides and Currents Weather Stations Pressure Air Temp Water Temp Dewpoint Dewpoint Depression Visibility Wind Speed Wind Dir Waves Ship Positions
date/time (UTC)wind fromknots sea level pressurealtimeterstation pressurevisibilityair tempwater tempwave heightnotes
2019-Sep-16 16:01 266 0 gusting 2 15.6
2019-Sep-16 15:46 301 15.6
2019-Sep-16 15:30 277 15.6
2019-Sep-16 15:15 268 15.0
2019-Sep-16 15:00 329 15.0
2019-Sep-16 14:45 005 0 gusting 4 15.0
2019-Sep-16 14:30 008 0 gusting 4 15.6
2019-Sep-16 14:15 335 1 gusting 4 15.0
2019-Sep-16 14:00 243 1 gusting 4 15.6
2019-Sep-16 13:45 253 0 gusting 2 15.6
2019-Sep-16 13:30 309 15.6
2019-Sep-16 13:15 055 0 gusting 2 15.6
2019-Sep-16 13:00 002 0 gusting 4 14.4
2019-Sep-16 12:45 335 1 gusting 5 14.4
2019-Sep-16 12:30 010 3 gusting 5 13.3
2019-Sep-16 12:15 350 3 gusting 6 12.8
2019-Sep-16 12:00 281 1 gusting 4 12.8
2019-Sep-16 11:45 006 4 gusting 7 12.2
2019-Sep-16 11:30 349 1 gusting 6 12.2
2019-Sep-16 11:15 018 3 gusting 6 12.2
2019-Sep-16 11:00 335 3 gusting 6 12.8
2019-Sep-16 10:45 358 1 gusting 6 12.8
2019-Sep-16 10:30 357 1 gusting 5 12.2
2019-Sep-16 10:16 355 2 gusting 5 12.2
2019-Sep-16 10:01 325 2 gusting 5 12.2
2019-Sep-16 09:46 356 1 gusting 4 12.8
2019-Sep-16 09:31 343 1 gusting 5 12.8
2019-Sep-16 09:16 009 1 gusting 4 12.8
2019-Sep-16 09:01 339 0 gusting 4 12.8
2019-Sep-16 08:47 345 12.8
2019-Sep-16 08:32 003 1 gusting 5 12.2
2019-Sep-16 08:16 335 1 gusting 5 12.2
2019-Sep-16 08:01 351 0 gusting 4 12.2
2019-Sep-16 07:46 350 0 gusting 2 12.2
2019-Sep-16 07:31 350 1 gusting 5 12.2
2019-Sep-16 07:16 333 12.2
2019-Sep-16 07:01 355 0 gusting 3 12.2
2019-Sep-16 06:46 001 1 gusting 4 11.7
2019-Sep-16 06:31 359 0 gusting 4 11.7
2019-Sep-16 06:16 354 2 gusting 5 11.7
2019-Sep-16 06:01 321 2 gusting 5 11.7
2019-Sep-16 05:45 359 1 gusting 4 11.7
2019-Sep-16 05:31 005 3 gusting 5 11.7
2019-Sep-16 05:15 351 2 gusting 6 12.2
2019-Sep-16 05:01 348 0 gusting 3 12.2
2019-Sep-16 04:46 353 1 gusting 3 12.2
2019-Sep-16 04:30 340 0 gusting 3 12.2
2019-Sep-16 04:15 354 1 gusting 4 12.2
2019-Sep-16 04:02 350 0 gusting 3 12.2
2019-Sep-16 03:45 338 1 gusting 5 12.2
2019-Sep-16 03:31 346 2 gusting 4 12.8
2019-Sep-16 03:15 350 1 gusting 3 12.8
2019-Sep-16 03:00 343 0 gusting 2 13.3
2019-Sep-16 02:45 343 1 gusting 3 13.3
2019-Sep-16 02:30 343 0 gusting 2 13.3
2019-Sep-16 02:15 343 0 gusting 3 13.3
2019-Sep-16 02:00 320 0 gusting 3 13.9
2019-Sep-16 01:45 268 14.4
2019-Sep-16 01:30 229 1 gusting 3 14.4
2019-Sep-16 01:15 210 0 gusting 4 14.4
2019-Sep-16 01:00 200 1 gusting 5 14.4
2019-Sep-16 00:45 208 1 gusting 4 14.4
2019-Sep-16 00:30 203 1 gusting 3 14.4
2019-Sep-16 00:15 211 0 gusting 4 14.4
2019-Sep-16 00:00 176 14.4
2019-Sep-15 23:45 174 14.4
2019-Sep-15 23:30 220 14.4
2019-Sep-15 23:15 220 13.9
2019-Sep-15 23:03 220 14.4
2019-Sep-15 22:47 220 14.4
2019-Sep-15 22:32
2019-Sep-15 22:17 289 14.4
2019-Sep-15 22:01
2019-Sep-15 21:46
2019-Sep-15 21:31 289 14.4
2019-Sep-15 21:15 289 14.4
2019-Sep-15 21:00 289 14.4
2019-Sep-15 20:46 289 14.4
2019-Sep-15 20:30 289 14.4
2019-Sep-15 20:16 352 14.4
2019-Sep-15 20:01 353 0 gusting 1 14.4
2019-Sep-15 19:46 357 15.0
2019-Sep-15 19:30 357 0 gusting 2 15.0
2019-Sep-15 19:15 328 15.0
2019-Sep-15 19:01 341 15.0
2019-Sep-15 18:45 303 15.6
2019-Sep-15 18:30 343 15.6
2019-Sep-15 18:16 225 16.1
2019-Sep-15 18:00 332 16.7
2019-Sep-15 17:46 156 0 gusting 4 16.7
2019-Sep-15 17:31 266 17.2
2019-Sep-15 17:16 291 17.8
2019-Sep-15 17:01 318 0 gusting 3 17.8
2019-Sep-15 16:47 311 17.8
2019-Sep-15 16:31 357 0 gusting 4 17.8
2019-Sep-15 16:15 312 0 gusting 2 18.3
2019-Sep-15 16:00 320 18.3
2019-Sep-15 15:45 002 0 gusting 5 18.3
2019-Sep-15 15:30 356 0 gusting 3 18.9
2019-Sep-15 15:15 314 0 gusting 2 18.9
2019-Sep-15 15:00 303 0 gusting 4 19.4
2019-Sep-15 14:45 284 1 gusting 4 19.4
2019-Sep-15 14:30 264 1 gusting 6 20.0
2019-Sep-15 14:16 177 1 gusting 9 20.6
2019-Sep-15 14:00 283 4 gusting 8 21.1
2019-Sep-15 13:45 273 4 gusting 7 20.6
2019-Sep-15 13:30 245 3 gusting 7 20.0
2019-Sep-15 13:15 257 1 gusting 8 20.0
2019-Sep-15 13:00 189 2 gusting 7 18.9
2019-Sep-15 12:45 239 2 gusting 9 19.4
2019-Sep-15 12:30 239 2 gusting 6 19.4
2019-Sep-15 12:15 220 4 gusting 6 18.9
2019-Sep-15 12:00 291 2 gusting 9 20.0
2019-Sep-15 11:45 216 1 gusting 8 20.6
2019-Sep-15 11:30 272 1 gusting 5 18.9
2019-Sep-15 11:15 296 1 gusting 9 18.3
2019-Sep-15 11:00 247 1 gusting 6 18.3
2019-Sep-15 10:45 275 2 gusting 9 18.3
2019-Sep-15 10:30 239 1 gusting 9 18.3
2019-Sep-15 10:15 241 18.9
2019-Sep-15 10:00 248 1 gusting 5 18.9
2019-Sep-15 09:45 221 2 gusting 7 19.4
2019-Sep-15 09:30 278 3 gusting 8 18.3
2019-Sep-15 09:17 200 2 gusting 7 18.3
2019-Sep-15 09:15 263 1 gusting 6 18.3
2019-Sep-15 09:02 270 1 gusting 6 17.8
2019-Sep-15 08:32 216 4 gusting 9 16.1
2019-Sep-15 08:16 199 2 gusting 8 15.6
2019-Sep-15 08:01 184 4 gusting 8 14.4
2019-Sep-15 07:46 225 4 gusting 9 13.9
2019-Sep-15 07:31 234 5 gusting 9 13.9
2019-Sep-15 07:16 229 3 gusting 7 13.3
2019-Sep-15 07:01 214 2 gusting 7 12.2
2019-Sep-15 06:46 182 5 gusting 7 12.2
2019-Sep-15 06:31 227 3 gusting 6 11.7
2019-Sep-15 06:16 189 2 gusting 6 11.1
2019-Sep-15 06:01 200 3 gusting 6 10.6
2019-Sep-15 05:45 199 3 gusting 6 10.6
2019-Sep-15 05:30 194 2 gusting 5 10.6
2019-Sep-15 05:15 214 1 gusting 4 10.6
2019-Sep-15 05:00 212 1 gusting 3 11.1
2019-Sep-15 04:45 200 2 gusting 5 11.1
2019-Sep-15 04:30 205 3 gusting 7 11.1
2019-Sep-15 04:15 206 1 gusting 6 10.6
2019-Sep-15 04:00 199 0 gusting 4 10.6
2019-Sep-15 03:45 212 2 gusting 6 10.6
2019-Sep-15 03:31 197 1 gusting 4 10.6
2019-Sep-15 03:16 214 1 gusting 4 10.6
2019-Sep-15 03:00 230 3 gusting 8 10.6
2019-Sep-15 02:45 206 2 gusting 5 10.0
2019-Sep-15 02:30 214 0 gusting 3 10.6
2019-Sep-15 02:15 190 10.6
2019-Sep-15 02:00 201 0 gusting 5 10.6
2019-Sep-15 01:45 216 1 gusting 4 11.1
2019-Sep-15 01:30 196 2 gusting 6 11.1
2019-Sep-15 01:17 212 2 gusting 6 11.7
2019-Sep-15 01:02 206 2 gusting 6 11.7
2019-Sep-15 00:46 190 4 gusting 6 11.7
2019-Sep-15 00:31 223 2 gusting 6 11.7
2019-Sep-15 00:16 193 2 gusting 6 12.2
2019-Sep-15 00:02 195 4 gusting 6 12.2
2019-Sep-14 23:46 209 2 gusting 6 12.2
2019-Sep-14 23:31 195 4 gusting 7 12.8
2019-Sep-14 23:16 216 3 gusting 7 12.8
2019-Sep-14 23:01 202 5 gusting 8 12.8
2019-Sep-14 22:46 206 6 gusting 9 13.3
2019-Sep-14 22:31 220 6 gusting 8 13.3
2019-Sep-14 22:15 199 5 gusting 7 13.9
2019-Sep-14 22:01 203 6 gusting 9 13.9
2019-Sep-14 21:45 197 6 gusting 11 13.9
2019-Sep-14 21:31 218 6 gusting 9 13.9
2019-Sep-14 21:16 216 4 gusting 9 13.9
2019-Sep-14 21:00 199 5 gusting 8 13.9
2019-Sep-14 20:45 222 6 gusting 10 14.4
2019-Sep-14 20:31 201 6 gusting 9 14.4
2019-Sep-14 20:15 206 5 gusting 8 15.0
2019-Sep-14 20:01 200 5 gusting 7 15.0
2019-Sep-14 19:46 208 5 gusting 8 15.0
2019-Sep-14 19:30 171 4 gusting 8 15.6
2019-Sep-14 19:15 200 5 gusting 8 15.6
2019-Sep-14 19:01 201 5 gusting 8 15.6
2019-Sep-14 18:45 199 4 gusting 6 15.0
2019-Sep-14 18:30 189 2 gusting 5 15.6
2019-Sep-14 18:16 197 2 gusting 5 16.1
2019-Sep-14 18:00 195 2 gusting 4 16.7
2019-Sep-14 17:45 219 3 gusting 6 17.2
2019-Sep-14 17:30 210 3 gusting 6 17.8
2019-Sep-14 17:15 200 3 gusting 8 18.3
2019-Sep-14 17:00 219 6 gusting 11 18.9
2019-Sep-14 16:45 243 3 gusting 8 19.4
2019-Sep-14 16:30 230 3 gusting 8 19.4
2019-Sep-14 16:15 208 6 gusting 12 19.4
2019-Sep-14 16:00 198 4 gusting 9 18.9